createdAt,value
2023-02-16T00:01:26.205Z,100871.47
2023-02-16T00:03:56.174Z,100877.31
2023-02-16T00:06:25.738Z,100875.53
2023-02-16T00:08:56.281Z,100873.72
2023-02-16T00:11:49.856Z,100877.13
2023-02-16T00:14:22.559Z,100870.19
2023-02-16T00:16:51.408Z,100870.97
2023-02-16T00:19:24.545Z,100876.13
2023-02-16T00:21:56.116Z,100869.16
2023-02-16T00:24:26.348Z,100858.84
2023-02-16T00:26:56.578Z,100852.75
2023-02-16T00:29:29.182Z,100853.56
2023-02-16T00:32:00.801Z,100844.03
2023-02-16T00:34:33.821Z,100845.72
2023-02-16T00:37:04.801Z,100845.72
2023-02-16T00:39:33.925Z,100842.94
2023-02-16T00:42:06.673Z,100844.63
2023-02-16T00:44:38.481Z,100843.72
2023-02-16T00:47:20.342Z,100839.28
2023-02-16T00:49:50.280Z,100839.13
2023-02-16T00:52:33.611Z,100841.72
2023-02-16T00:55:05.563Z,100835.47
2023-02-16T00:57:40.428Z,100830.31
2023-02-16T01:00:16.775Z,100839.75
2023-02-16T01:02:49.051Z,100839.53
2023-02-16T01:05:18.151Z,100844.69
2023-02-16T01:08:05.693Z,100836.06
2023-02-16T01:11:06.210Z,100835.78
2023-02-16T01:13:42.921Z,100839.16
2023-02-16T01:16:15.399Z,100833.97
2023-02-16T01:18:44.351Z,100838.16
2023-02-16T01:21:13.971Z,100835.59
2023-02-16T01:23:42.841Z,100844.13
2023-02-16T01:26:16.165Z,100831.09
2023-02-16T01:28:46.735Z,100835.19
2023-02-16T01:31:18.688Z,100835.97
2023-02-16T01:33:48.353Z,100826.44
2023-02-16T01:36:25.841Z,100834.97
2023-02-16T01:38:54.331Z,100833.22
2023-02-16T01:41:36.580Z,100829.75
2023-02-16T01:44:12.846Z,100836.47
2023-02-16T01:46:48.961Z,100833.78
2023-02-16T01:49:20.489Z,100841.53
2023-02-16T01:51:58.760Z,100826.75
2023-02-16T01:54:41.735Z,100831.81
2023-02-16T01:57:26.752Z,100835.09
2023-02-16T02:00:16.299Z,100820.41
2023-02-16T02:02:50.544Z,100823.69
2023-02-16T02:05:36.633Z,100814.13
2023-02-16T02:08:23.048Z,100819.91
2023-02-16T02:11:06.391Z,100819.91
2023-02-16T02:13:44.158Z,100816.31
2023-02-16T02:16:17.941Z,100813.75
2023-02-16T02:18:48.147Z,100811.88
2023-02-16T02:22:08.511Z,100809.19
2023-02-16T02:25:35.691Z,100810.56
2023-02-16T02:28:12.174Z,100811.25
2023-02-16T02:30:49.008Z,100813.84
2023-02-16T02:33:44.123Z,100814.66
2023-02-16T02:36:26.155Z,100808.59
2023-02-16T02:39:06.962Z,100808.59
2023-02-16T02:42:01.544Z,100807.59
2023-02-16T02:44:35.840Z,100799.63
2023-02-16T02:47:04.399Z,100804.78
2023-02-16T02:49:32.926Z,100797.03
2023-02-16T02:52:01.785Z,100792.72
2023-02-16T02:54:51.445Z,100790.91
2023-02-16T02:57:43.118Z,100796.75
2023-02-16T03:00:35.479Z,100788.72
2023-02-16T03:03:09.569Z,100797.25
2023-02-16T03:05:43.067Z,100791.19
2023-02-16T03:08:15.270Z,100794.66
2023-02-16T03:11:05.557Z,100785.13
2023-02-16T03:13:38.234Z,100787.53
2023-02-16T03:16:13.883Z,100789.31
2023-02-16T03:19:02.567Z,100782.38
2023-02-16T03:21:48.541Z,100785.72
2023-02-16T03:24:40.531Z,100780.38
2023-02-16T03:27:28.274Z,100777.59
2023-02-16T03:29:58.114Z,100777.41
2023-02-16T03:32:28.178Z,100770.56
2023-02-16T03:34:56.554Z,100766.28
2023-02-16T03:37:25.225Z,100767.97
2023-02-16T03:40:11.327Z,100757.44
2023-02-16T03:42:40.402Z,100755.56
2023-02-16T03:45:09.934Z,100753.66
2023-02-16T03:47:39.788Z,100766.56
2023-02-16T03:50:09.606Z,100760.50
2023-02-16T03:52:38.109Z,100759.63
2023-02-16T03:55:07.307Z,100749.22
2023-02-16T03:57:35.932Z,100757.75
2023-02-16T04:00:04.565Z,100756.84
2023-02-16T04:02:42.948Z,100751.69
2023-02-16T04:05:11.271Z,100755.06
2023-02-16T04:07:39.550Z,100758.41
2023-02-16T04:10:08.596Z,100771.22
2023-02-16T04:12:38.932Z,100758.31
2023-02-16T04:15:09.989Z,100754.88
2023-02-16T04:17:38.645Z,100760.72
2023-02-16T04:20:12.336Z,100769.34
2023-02-16T04:22:41.027Z,100773.59
2023-02-16T04:25:09.650Z,100770.00
2023-02-16T04:27:39.642Z,100767.44
2023-02-16T04:30:11.919Z,100766.53
2023-02-16T04:32:40.776Z,100765.63
2023-02-16T04:35:11.212Z,100760.47
2023-02-16T04:37:39.830Z,100753.56
2023-02-16T04:40:13.513Z,100752.66
2023-02-16T04:42:42.265Z,100745.72
2023-02-16T04:45:11.664Z,100744.81
2023-02-16T04:47:40.057Z,100747.25
2023-02-16T04:50:11.107Z,100755.78
2023-02-16T04:52:40.376Z,100747.97
2023-02-16T04:55:10.777Z,100750.44
2023-02-16T04:57:39.458Z,100740.78
2023-02-16T05:00:11.731Z,100748.53
2023-02-16T05:02:41.949Z,100743.28
2023-02-16T05:05:11.791Z,100738.13
2023-02-16T05:07:40.646Z,100737.13
2023-02-16T05:10:10.183Z,100737.00
2023-02-16T05:12:56.205Z,100736.03
2023-02-16T05:15:24.944Z,100740.19
2023-02-16T05:17:53.428Z,100748.72
2023-02-16T05:20:44.421Z,100758.13
2023-02-16T05:23:12.954Z,100752.78
2023-02-16T05:25:41.383Z,100759.63
2023-02-16T05:28:09.794Z,100762.22
2023-02-16T05:30:38.328Z,100751.66
2023-02-16T05:33:06.725Z,100759.50
2023-02-16T05:35:36.766Z,100760.41
2023-02-16T05:38:05.256Z,100754.25
2023-02-16T05:40:33.889Z,100761.13
2023-02-16T05:43:02.276Z,100768.84
2023-02-16T05:45:30.714Z,100767.13
2023-02-16T05:47:59.070Z,100764.56
2023-02-16T05:50:27.390Z,100752.38
2023-02-16T05:53:02.066Z,100755.06
2023-02-16T05:55:30.533Z,100752.38
2023-02-16T05:57:58.934Z,100750.56
2023-02-16T06:00:27.637Z,100752.16
2023-02-16T06:02:56.119Z,100749.50
2023-02-16T06:05:24.557Z,100753.63
2023-02-16T06:07:53.087Z,100757.78
2023-02-16T06:10:22.965Z,100759.38
2023-02-16T06:12:51.308Z,100762.75
2023-02-16T06:15:19.715Z,100760.97
2023-02-16T06:17:48.164Z,100766.13
2023-02-16T06:20:16.675Z,100759.94
2023-02-16T06:22:45.042Z,100761.66
2023-02-16T06:25:13.473Z,100768.56
2023-02-16T06:27:43.348Z,100772.84
2023-02-16T06:30:12.645Z,100770.25
2023-02-16T06:32:41.133Z,100765.03
2023-02-16T06:35:10.114Z,100758.97
2023-02-16T06:37:38.615Z,100764.13
2023-02-16T06:40:09.933Z,100754.59
2023-02-16T06:42:38.828Z,100761.44
2023-02-16T06:45:10.329Z,100764.00
2023-02-16T06:47:38.983Z,100769.88
2023-02-16T06:50:14.390Z,100766.41
2023-02-16T06:52:42.961Z,100762.03
2023-02-16T06:55:11.527Z,100763.69
2023-02-16T06:57:39.974Z,100764.59
2023-02-16T07:00:11.660Z,100764.72
2023-02-16T07:02:40.084Z,100767.28
2023-02-16T07:05:09.138Z,100769.06
2023-02-16T07:07:37.657Z,100763.13
2023-02-16T07:10:07.602Z,100762.22
2023-02-16T07:12:36.039Z,100756.38
2023-02-16T07:15:05.510Z,100764.31
2023-02-16T07:17:35.398Z,100747.88
2023-02-16T07:20:05.627Z,100758.25
2023-02-16T07:22:34.418Z,100751.44
2023-02-16T07:25:03.195Z,100751.53
2023-02-16T07:27:31.637Z,100769.69
2023-02-16T07:30:00.066Z,100767.13
2023-02-16T07:32:31.948Z,100768.09
2023-02-16T07:35:01.781Z,100765.63
2023-02-16T07:37:30.231Z,100771.50
2023-02-16T07:39:58.781Z,100775.94
2023-02-16T07:42:31.112Z,100776.84
2023-02-16T07:44:59.648Z,100774.38
2023-02-16T07:47:28.177Z,100773.66
2023-02-16T07:49:56.562Z,100768.63
2023-02-16T07:52:30.961Z,100771.31
2023-02-16T07:54:59.853Z,100764.56
2023-02-16T07:57:29.656Z,100754.47
2023-02-16T07:59:58.134Z,100748.53
2023-02-16T08:02:27.588Z,100749.50
2023-02-16T08:04:56.099Z,100750.50
2023-02-16T08:07:26.035Z,100745.34
2023-02-16T08:09:54.728Z,100748.81
2023-02-16T08:12:23.261Z,100737.72
2023-02-16T08:14:51.880Z,100742.88
2023-02-16T08:17:20.477Z,100741.97
2023-02-16T08:19:49.023Z,100749.72
2023-02-16T08:22:19.296Z,100751.50
2023-02-16T08:24:49.200Z,100756.75
2023-02-16T08:27:17.869Z,100755.88
2023-02-16T08:29:46.302Z,100754.28
2023-02-16T08:32:15.448Z,100757.09
2023-02-16T08:34:43.853Z,100757.16
2023-02-16T08:37:14.173Z,100761.66
2023-02-16T08:39:42.922Z,100757.38
2023-02-16T08:42:14.239Z,100765.22
2023-02-16T08:44:44.605Z,100760.16
2023-02-16T08:47:13.937Z,100767.25
2023-02-16T08:49:44.211Z,100764.78
2023-02-16T08:52:13.104Z,100761.38
2023-02-16T08:54:41.885Z,100771.91
2023-02-16T08:57:11.918Z,100762.59
2023-02-16T08:59:40.560Z,100770.66
2023-02-16T09:02:09.036Z,100774.31
2023-02-16T09:04:37.891Z,100783.94
2023-02-16T09:07:06.516Z,100784.25
2023-02-16T09:09:35.031Z,100786.22
2023-02-16T09:12:03.679Z,100782.06
2023-02-16T09:14:33.477Z,100775.41
2023-02-16T09:17:02.025Z,100784.03
2023-02-16T09:19:30.801Z,100778.22
2023-02-16T09:21:59.201Z,100780.88
2023-02-16T09:24:27.967Z,100785.47
2023-02-16T09:26:56.907Z,100782.16
2023-02-16T09:29:26.237Z,100781.38
2023-02-16T09:31:56.181Z,100774.53
2023-02-16T09:34:26.842Z,100773.75
2023-02-16T09:36:56.558Z,100773.81
2023-02-16T09:39:25.042Z,100780.09
2023-02-16T09:42:15.929Z,100775.03
2023-02-16T09:44:55.938Z,100775.09
2023-02-16T09:47:31.058Z,100787.34
2023-02-16T09:50:01.881Z,100779.69
2023-02-16T09:52:37.423Z,100778.19
2023-02-16T09:55:09.828Z,100777.50
2023-02-16T09:57:58.036Z,100775.91
2023-02-16T10:00:42.244Z,100787.34
2023-02-16T10:03:28.855Z,100796.16
2023-02-16T10:06:06.636Z,100788.59
2023-02-16T10:08:40.201Z,100788.69
2023-02-16T10:11:29.963Z,100793.25
2023-02-16T10:14:04.074Z,100790.78
2023-02-16T10:16:38.926Z,100796.84
2023-02-16T10:19:20.083Z,100798.81
2023-02-16T10:21:54.960Z,100803.19
2023-02-16T10:24:23.555Z,100812.84
2023-02-16T10:27:02.456Z,100809.53
2023-02-16T10:29:30.956Z,100802.69
2023-02-16T10:32:14.873Z,100811.53
2023-02-16T10:34:52.046Z,100806.38
2023-02-16T10:37:40.830Z,100809.03
2023-02-16T10:40:25.728Z,100796.22
2023-02-16T10:43:02.016Z,100797.13
2023-02-16T10:45:37.934Z,100798.81
2023-02-16T10:48:06.544Z,100798.81
2023-02-16T10:50:43.038Z,100805.88
2023-02-16T10:53:18.239Z,100797.28
2023-02-16T10:55:46.947Z,100799.88
2023-02-16T10:58:23.632Z,100803.34
2023-02-16T11:00:59.698Z,100800.78
2023-02-16T11:03:33.434Z,100808.53
2023-02-16T11:06:15.567Z,100805.16
2023-02-16T11:08:50.284Z,100805.16
2023-02-16T11:11:22.743Z,100808.75
2023-02-16T11:13:59.379Z,100795.09
2023-02-16T11:16:28.616Z,100792.63
2023-02-16T11:19:00.609Z,100786.00
2023-02-16T11:24:36.888Z,100780.31
2023-02-16T11:27:16.258Z,100791.63
2023-02-16T11:29:44.743Z,100800.38
2023-02-16T11:32:15.843Z,100790.22
2023-02-16T11:34:48.196Z,100781.78
2023-02-16T11:37:25.608Z,100779.47
2023-02-16T11:39:58.205Z,100783.06
2023-02-16T11:42:34.895Z,100775.47
2023-02-16T11:45:06.403Z,100759.16
2023-02-16T11:47:37.634Z,100766.31
2023-02-16T11:50:23.225Z,100766.50
2023-02-16T11:52:54.914Z,100757.22
2023-02-16T11:55:32.768Z,100753.97
2023-02-16T11:58:17.667Z,100747.16
2023-02-16T12:00:59.625Z,100743.00
2023-02-16T12:03:59.738Z,100744.78
2023-02-16T12:06:54.678Z,100741.41
2023-02-16T12:09:33.624Z,100743.16
2023-02-16T12:12:13.472Z,100737.97
2023-02-16T12:14:59.029Z,100744.88
2023-02-16T12:17:46.053Z,100734.44
2023-02-16T12:20:33.047Z,100749.94
2023-02-16T12:23:17.208Z,100749.94
2023-02-16T12:25:59.088Z,100743.16
2023-02-16T12:28:38.972Z,100741.41
2023-02-16T12:31:22.116Z,100732.81
2023-02-16T12:33:59.401Z,100729.44
2023-02-16T12:36:55.141Z,100723.38
2023-02-16T12:39:32.697Z,100710.38
2023-02-16T12:42:33.212Z,100698.25
2023-02-16T12:45:10.868Z,100690.47
2023-02-16T12:47:44.761Z,100702.59
2023-02-16T12:50:21.554Z,100705.19
2023-02-16T12:52:54.644Z,100692.34
2023-02-16T12:55:29.319Z,100695.81
2023-02-16T12:58:05.359Z,100693.22
2023-02-16T13:00:43.656Z,100699.41
2023-02-16T13:03:27.304Z,100697.69
2023-02-16T13:06:09.301Z,100688.31
2023-02-16T13:08:45.419Z,100692.78
2023-02-16T13:11:21.733Z,100706.72
2023-02-16T13:13:53.444Z,100703.41
2023-02-16T13:16:34.957Z,100705.28
2023-02-16T13:19:03.521Z,100707.09
2023-02-16T13:22:02.147Z,100700.19
2023-02-16T13:24:49.227Z,100684.66
2023-02-16T13:27:32.252Z,100681.38
2023-02-16T13:30:56.731Z,100676.31
2023-02-16T13:33:52.777Z,100677.19
2023-02-16T13:36:48.681Z,100663.47
2023-02-16T13:40:24.633Z,100665.22
2023-02-16T13:43:12.754Z,100660.94
2023-02-16T13:45:44.635Z,100654.19
2023-02-16T13:48:24.597Z,100639.66
2023-02-16T13:51:05.206Z,100637.94
2023-02-16T13:53:38.598Z,100645.88
2023-02-16T13:56:23.218Z,100633.09
2023-02-16T13:58:53.477Z,100633.19
2023-02-16T14:01:43.012Z,100632.41
2023-02-16T14:04:35.778Z,100644.53
2023-02-16T14:07:35.957Z,100641.84
2023-02-16T14:10:05.973Z,100634.09
2023-02-16T14:12:40.653Z,100625.63
2023-02-16T14:15:20.951Z,100622.22
2023-02-16T14:17:52.514Z,100610.25
2023-02-16T14:20:31.503Z,100610.25
2023-02-16T14:23:01.618Z,100611.25
2023-02-16T14:25:38.922Z,100607.94
2023-02-16T14:28:43.998Z,100613.09
2023-02-16T14:31:16.626Z,100613.09
2023-02-16T14:33:50.667Z,100601.84
2023-02-16T14:36:21.688Z,100607.03
2023-02-16T14:38:53.241Z,100613.09
2023-02-16T14:41:29.657Z,100606.34
2023-02-16T14:44:29.476Z,100602.75
2023-02-16T14:47:12.991Z,100600.97
2023-02-16T14:50:28.643Z,100600.97
2023-02-16T14:53:45.572Z,100599.13
2023-02-16T14:56:43.747Z,100602.59
2023-02-16T14:59:29.831Z,100592.25
2023-02-16T15:01:58.514Z,100594.03
2023-02-16T15:04:31.851Z,100592.41
2023-02-16T15:07:04.682Z,100583.84
2023-02-16T15:09:35.531Z,100582.25
2023-02-16T15:12:23.283Z,100581.50
2023-02-16T15:14:55.655Z,100574.63
2023-02-16T15:17:34.378Z,100573.13
2023-02-16T15:20:11.278Z,100565.41
2023-02-16T15:22:44.315Z,100552.69
2023-02-16T15:25:26.158Z,100555.44
2023-02-16T15:28:04.332Z,100547.78
2023-02-16T15:30:34.235Z,100546.88
2023-02-16T15:33:06.972Z,100539.22
2023-02-16T15:35:39.678Z,100547.06
2023-02-16T15:38:22.614Z,100541.88
2023-02-16T15:40:54.856Z,100544.47
2023-02-16T15:43:39.993Z,100550.50
2023-02-16T15:46:16.070Z,100547.06
2023-02-16T15:48:44.566Z,100560.06
2023-02-16T15:51:18.758Z,100567.94
2023-02-16T15:53:51.988Z,100565.34
2023-02-16T15:56:32.460Z,100568.97
2023-02-16T15:59:06.484Z,100555.97
2023-02-16T16:01:36.522Z,100550.69
2023-02-16T16:04:17.613Z,100555.06
2023-02-16T16:06:48.140Z,100549.91
2023-02-16T16:09:25.626Z,100550.69
2023-02-16T16:11:58.713Z,100533.47
2023-02-16T16:14:30.654Z,100537.84
2023-02-16T16:16:59.590Z,100542.03
2023-02-16T16:19:35.762Z,100543.91
2023-02-16T16:22:05.935Z,100528.19
2023-02-16T16:24:39.333Z,100532.47
2023-02-16T16:27:12.010Z,100533.28
2023-02-16T16:29:45.706Z,100528.84
2023-02-16T16:32:24.965Z,100538.41
2023-02-16T16:34:54.085Z,100530.44
2023-02-16T16:37:31.983Z,100536.53
2023-02-16T16:40:07.777Z,100532.16
2023-02-16T16:42:40.026Z,100528.66
2023-02-16T16:45:36.582Z,100529.41
2023-02-16T16:48:11.882Z,100524.13
2023-02-16T16:50:42.476Z,100520.66
2023-02-16T16:53:45.555Z,100524.94
2023-02-16T16:56:15.424Z,100520.47
2023-02-16T16:58:43.841Z,100518.69
2023-02-16T17:01:15.929Z,100519.59
2023-02-16T17:03:44.579Z,100524.75
2023-02-16T17:06:14.665Z,100519.59
2023-02-16T17:08:43.231Z,100517.88
2023-02-16T17:11:19.887Z,100530.81
2023-02-16T17:13:48.587Z,100525.66
2023-02-16T17:16:23.750Z,100522.22
2023-02-16T17:18:52.211Z,100518.69
2023-02-16T17:21:21.353Z,100515.28
2023-02-16T17:23:53.094Z,100513.50
2023-02-16T17:26:22.455Z,100515.28
2023-02-16T17:28:51.503Z,100514.41
2023-02-16T17:31:21.445Z,100507.53
2023-02-16T17:33:49.893Z,100504.94
2023-02-16T17:36:27.718Z,100500.66
2023-02-16T17:38:56.817Z,100505.84
2023-02-16T17:41:28.941Z,100501.53
2023-02-16T17:43:57.600Z,100496.28
2023-02-16T17:46:28.632Z,100494.59
2023-02-16T17:48:57.019Z,100502.34
2023-02-16T17:51:29.590Z,100511.88
2023-02-16T17:53:58.132Z,100512.72
2023-02-16T17:56:26.662Z,100514.41
2023-02-16T17:58:55.441Z,100517.00
2023-02-16T18:01:24.316Z,100517.00
2023-02-16T18:03:54.128Z,100521.38
2023-02-16T18:06:28.074Z,100524.81
2023-02-16T18:08:57.348Z,100516.19
2023-02-16T18:11:26.202Z,100525.66
2023-02-16T18:13:54.808Z,100524.75
2023-02-16T18:16:28.090Z,100523.06
2023-02-16T18:18:58.359Z,100529.03
2023-02-16T18:21:26.806Z,100528.06
2023-02-16T18:23:55.636Z,100528.16
2023-02-16T18:26:24.584Z,100519.38
2023-02-16T18:28:53.216Z,100516.91
2023-02-16T18:31:21.734Z,100525.47
2023-02-16T18:33:50.499Z,100517.78
2023-02-16T18:36:20.330Z,100512.53
2023-02-16T18:38:48.926Z,100519.38
2023-02-16T18:41:17.374Z,100521.19
2023-02-16T18:43:46.051Z,100519.38
2023-02-16T18:46:14.590Z,100522.06
2023-02-16T18:48:42.996Z,100519.38
2023-02-16T18:51:12.872Z,100525.47
2023-02-16T18:53:42.756Z,100527.09
2023-02-16T18:56:13.066Z,100530.47
2023-02-16T18:58:41.994Z,100514.97
2023-02-16T19:01:15.275Z,100518.34
2023-02-16T19:03:43.987Z,100521.75
2023-02-16T19:06:12.355Z,100519.94
2023-02-16T19:08:42.127Z,100526.03
2023-02-16T19:11:10.513Z,100518.16
2023-02-16T19:13:39.325Z,100511.22
2023-02-16T19:16:08.619Z,100516.31
2023-02-16T19:18:37.250Z,100511.03
2023-02-16T19:21:07.915Z,100515.31
2023-02-16T19:23:36.874Z,100517.81
2023-02-16T19:26:12.951Z,100528.16
2023-02-16T19:28:41.880Z,100525.53
2023-02-16T19:31:19.702Z,100528.03
2023-02-16T19:33:48.709Z,100533.91
2023-02-16T19:36:19.488Z,100536.59
2023-02-16T19:38:49.580Z,100539.00
2023-02-16T19:41:22.506Z,100547.66
2023-02-16T19:43:51.387Z,100548.56
2023-02-16T19:46:20.316Z,100549.34
2023-02-16T19:48:50.102Z,100553.63
2023-02-16T19:51:18.983Z,100544.09
2023-02-16T19:53:47.643Z,100548.38
2023-02-16T19:56:20.769Z,100556.22
2023-02-16T19:58:50.204Z,100555.34
2023-02-16T20:01:21.325Z,100557.13
2023-02-16T20:03:53.164Z,100548.56
2023-02-16T20:06:24.843Z,100548.56
2023-02-16T20:08:54.618Z,100543.38
2023-02-16T20:11:30.552Z,100536.47
2023-02-16T20:14:00.138Z,100530.44
2023-02-16T20:16:29.316Z,100537.22
2023-02-16T20:19:00.340Z,100531.06
2023-02-16T20:21:30.740Z,100527.53
2023-02-16T20:24:02.423Z,100525.72
2023-02-16T20:26:34.918Z,100520.56
2023-02-16T20:29:04.019Z,100516.97
2023-02-16T20:31:36.308Z,100510.91
2023-02-16T20:34:05.263Z,100510.84
2023-02-16T20:36:34.779Z,100517.78
2023-02-16T20:39:04.656Z,100510.84
2023-02-16T20:41:34.801Z,100507.38
2023-02-16T20:44:03.931Z,100504.69
2023-02-16T20:46:32.921Z,100503.91
2023-02-16T20:49:01.449Z,100501.31
2023-02-16T20:51:30.533Z,100504.84
2023-02-16T20:54:00.490Z,100502.22
2023-02-16T20:56:30.385Z,100503.97
2023-02-16T20:59:01.491Z,100503.09
2023-02-16T21:01:33.277Z,100501.31
2023-02-16T21:04:02.064Z,100492.56
2023-02-16T21:06:30.669Z,100501.13
2023-02-16T21:08:59.274Z,100490.78
2023-02-16T21:11:28.397Z,100502.81
2023-02-16T21:13:57.688Z,100501.03
2023-02-16T21:16:27.704Z,100503.63
2023-02-16T21:18:56.492Z,100495.06
2023-02-16T21:21:25.544Z,100502.75
2023-02-16T21:23:55.747Z,100501.91
2023-02-16T21:26:26.495Z,100502.81
2023-02-16T21:28:55.387Z,100490.69
2023-02-16T21:31:27.401Z,100495.06
2023-02-16T21:33:56.368Z,100492.41
2023-02-16T21:36:27.302Z,100496.75
2023-02-16T21:38:56.496Z,100497.59
2023-02-16T21:41:29.014Z,100495.78
2023-02-16T21:44:01.689Z,100495.78
2023-02-16T21:46:33.853Z,100495.78
2023-02-16T21:49:01.983Z,100482.75
2023-02-16T21:51:32.768Z,100483.66
2023-02-16T21:54:01.860Z,100481.88
2023-02-16T21:56:34.938Z,100481.88
2023-02-16T21:59:05.084Z,100480.09
2023-02-16T22:01:39.019Z,100469.75
2023-02-16T22:04:07.863Z,100480.09
2023-02-16T22:06:39.622Z,100462.78
2023-02-16T22:09:14.192Z,100451.63
2023-02-16T22:11:43.097Z,100453.44
2023-02-16T22:14:12.378Z,100445.66
2023-02-16T22:16:42.372Z,100449.25
2023-02-16T22:19:14.555Z,100446.66
2023-02-16T22:21:47.093Z,100445.00
2023-02-16T22:24:17.492Z,100456.19
2023-02-16T22:26:47.608Z,100455.31
2023-02-16T22:29:16.245Z,100454.41
2023-02-16T22:31:48.215Z,100461.38
2023-02-16T22:34:19.891Z,100464.81
2023-02-16T22:36:48.469Z,100459.59
2023-02-16T22:39:18.354Z,100464.81
2023-02-16T22:41:47.021Z,100457.06
2023-02-16T22:44:15.984Z,100454.47
2023-02-16T22:46:45.827Z,100451.03
2023-02-16T22:49:14.242Z,100444.13
2023-02-16T22:51:42.758Z,100444.06
2023-02-16T22:54:14.289Z,100446.66
2023-02-16T22:56:43.089Z,100441.47
2023-02-16T22:59:12.658Z,100440.69
2023-02-16T23:01:41.100Z,100434.63
2023-02-16T23:04:16.360Z,100435.50
2023-02-16T23:06:46.304Z,100429.44
2023-02-16T23:09:19.645Z,100442.38
2023-02-16T23:11:49.511Z,100444.97
2023-02-16T23:14:19.425Z,100434.53
2023-02-16T23:16:50.416Z,100435.41
2023-02-16T23:19:24.030Z,100438.00
2023-02-16T23:21:52.997Z,100439.69
2023-02-16T23:24:24.413Z,100433.72
2023-02-16T23:26:53.449Z,100450.13
2023-02-16T23:29:22.179Z,100439.69
2023-02-16T23:31:50.973Z,100436.22
2023-02-16T23:34:21.871Z,100443.09
2023-02-16T23:36:50.799Z,100427.47
2023-02-16T23:39:20.061Z,100430.16
2023-02-16T23:41:48.376Z,100437.09
2023-02-16T23:44:16.831Z,100437.09
2023-02-16T23:46:45.317Z,100431.13
2023-02-16T23:49:14.050Z,100424.31
2023-02-16T23:51:44.145Z,100436.47
2023-02-16T23:54:12.577Z,100435.56
2023-02-16T23:56:41.475Z,100428.78
2023-02-16T23:59:09.941Z,100438.25
